Impacts TAF Board INFO
FOR SITUATIONAL AWARENESS. NOT TO BE USED FOR FLIGHT PLANNING PURPOSES.
IDs:

KMIA - Miami Intl, FL, US

Issued at 0556 UTC 14 Dec 2017
Updated at 0800 UTC 14 Dec 2017
Potential Impact None Slight Moderate High
Time0753Z 14/08Z 14/09Z 14/10Z 14/11Z 14/12Z 14/13Z 14/14Z 14/15Z 14/16Z 14/17Z 14/18Z 14/19Z 14/20Z>>
Type OBS PRVL PRVL PRVL PRVL PRVL PRVL PRVL PRVL PRVL PRVL PRVL PRVL PRVL
VIS 10 >6 >6 >6 >6 >6 >6 >6 >6 >6 >6 >6 >6 >6
CIG -- -- -- -- -- -- -- -- -- -- -- -- -- --
Cover FEW SKC SKC SKC SKC SKC SKC SKC SKC SKC SKC SKC SKC SKC
FltCat VFR VFR VFR VFR VFR VFR VFR VFR VFR VFR VFR VFR VFR VFR
WX -- -- -- -- -- -- -- -- -- -- -- -- -- --
WDir VRB VRB VRB VRB VRB VRB VRB VRB VRB VRB 150 150 150 150
WSpd 0 2 2 2 2 2 2 2 2 2 5 5 5 5
WGst -- -- -- -- -- -- -- -- -- -- -- -- -- --

Raw TAF
KMIA 140556Z 1406/1512 VRB02KT P6SM SKC
  FM141700 15005KT P6SM SKC
  FM150000 VRB02KT P6SM SKC


Raw METAR
KMIA 140753Z 00000KT 10SM FEW015 11/08 A3005 RMK AO2 SLP175 T01060078 $
KMIA 140653Z 00000KT 10SM CLR 10/07 A3004 RMK AO2 SLP173 T01000067 $
KMIA 140553Z 00000KT 10SM CLR 09/06 A3005 RMK AO2 SLP175 T00940061 10167 20094 58018 $
KMIA 140453Z 00000KT 10SM CLR 12/06 A3008 RMK AO2 SLP184 T01170061 401940111 $

METAR Board
Radar Display
Forecast Discussion

FOR SITUATIONAL AWARENESS. NOT TO BE USED FOR FLIGHT PLANNING PURPOSES.